Ice Crystal — V2EF4 — position and weather

sailwx.info

Track history (hours):
 
Tides and Currents Weather Stations Pressure Air Temp Water Temp Dewpoint Dewpoint Depression Visibility Wind Speed Wind Dir Waves Ship Positions

Ice Crystal

Last reported at 2018-Feb-25 21:58 UTC. Time now 2018-Feb-25 22:09 UTC.
Position N 51°57' E 003°59'.

Length 129 m; draft 7.7 m.

Type: Cargo ship. MMSI: 305412000.

Date/timePositionNaut miles runAvg speedWind from/ knotsBaromVisibWave heightAir tempDewpointWater temp
2018-Feb-25 21:58N 51°57' E 003°59'0 0.0
2018-Feb-25 21:28N 51°57' E 003°59'0 0.0
2018-Feb-25 20:58N 51°57' E 003°59'0 0.0
2018-Feb-25 20:30N 51°57' E 003°59'0 0.2
2018-Feb-25 20:00N 51°57' E 003°59'2 3.0
2018-Feb-25 19:30N 51°58' E 003°60'3 6.6
2018-Feb-25 19:00N 51°58' E 004°05'4 8.8
2018-Feb-25 18:30N 51°60' E 003°59'5 9.4
2018-Feb-25 18:00N 52°01' E 003°51'811.3
2018-Feb-25 17:19N 52°08' E 003°45'1 2.2
2018-Feb-25 16:55N 52°08' E 003°44'0 0.0
2018-Feb-25 16:22N 52°08' E 003°44'0 0.0
2018-Feb-25 15:55N 52°08' E 003°44'0 0.0
2018-Feb-25 15:28N 52°08' E 003°44'0 0.0
2018-Feb-25 14:55N 52°08' E 003°44'0 0.0
2018-Feb-25 14:28N 52°08' E 003°44'0 1.0
2018-Feb-25 14:00N 52°09' E 003°44'611.7
2018-Feb-25 13:30N 52°14' E 003°46'20611.5
2018-Feb-24 19:34N 55°20' E 006°19'111.7
2018-Feb-24 19:30N 55°21' E 006°20'611.7
2018-Feb-24 18:59N 55°26' E 006°26'511.4
2018-Feb-24 18:30N 55°30' E 006°31'611.4
2018-Feb-24 18:00N 55°35' E 006°36'12711.4
2018-Feb-24 06:49N 57°19' E 008°48'1611.5
2018-Feb-24 05:26N 57°28' E 009°13'2711.4
2018-Feb-24 03:02N 57°43' E 009°56'311.0
2018-Feb-24 02:46N 57°44' E 010°01'511.2
2018-Feb-24 02:21N 57°45' E 010°09'411.3
2018-Feb-24 02:00N 57°46' E 010°16'611.4
2018-Feb-24 01:30N 57°47' E 010°26'611.5
2018-Feb-24 01:00N 57°48' E 010°37'510.7
2018-Feb-24 00:30N 57°46' E 010°47'612.0
2018-Feb-24 00:00N 57°40' E 010°46'611.3
2018-Feb-23 23:30N 57°35' E 010°46'611.5
2018-Feb-23 23:00N 57°29' E 010°45'611.8
2018-Feb-23 22:30N 57°23' E 010°44'612.3
2018-Feb-23 22:00N 57°17' E 010°43'7410.8
2018-Feb-23 15:09N 56°03' E 010°46'612.1
2018-Feb-23 14:40N 56°04' E 010°35'212.6
2018-Feb-23 14:30N 56°05' E 010°32'713.1
2018-Feb-23 14:00N 56°08' E 010°22'4 8.5
2018-Feb-23 13:30N 56°09' E 010°14'0 0.0
2018-Feb-23 12:57N 56°09' E 010°14'0 0.0
2018-Feb-23 12:30N 56°09' E 010°14'0 0.0
2018-Feb-23 12:00N 56°09' E 010°14'0 0.0
2018-Feb-23 11:30N 56°09' E 010°14'0 0.0
2018-Feb-23 11:00N 56°09' E 010°14'0 0.0
2018-Feb-23 10:30N 56°09' E 010°14'0 0.0
2018-Feb-23 10:00N 56°09' E 010°14'0 0.0
2018-Feb-23 09:30N 56°09' E 010°14'0 0.0
2018-Feb-23 06:40N 56°09' E 010°14'0 0.7
2018-Feb-23 06:23N 56°09' E 010°14'2 4.4
2018-Feb-23 06:00N 56°09' E 010°17'610.1
2018-Feb-23 05:25N 56°06' E 010°27'2610.5
2018-Feb-23 02:54N 56°09' E 011°14'1214.4
2018-Feb-23 02:05N 56°20' E 011°25'1315.2
2018-Feb-23 01:16N 56°30' E 011°36'1115.2
2018-Feb-23 00:34N 56°40' E 011°45'215.4
2018-Feb-23 00:26N 56°41' E 011°47'1114.6
2018-Feb-22 23:42N 56°52' E 011°47'315.9
2018-Feb-22 23:30N 56°55' E 011°45'815.6
2018-Feb-22 23:00N 57°02' E 011°40'714.9
2018-Feb-22 22:31N 57°10' E 011°38'714.8
2018-Feb-22 22:00N 57°17' E 011°38'714.9
2018-Feb-22 21:30N 57°24' E 011°37'815.2
2018-Feb-22 21:00N 57°32' E 011°37'713.6
2018-Feb-22 20:30N 57°38' E 011°42'611.0
2018-Feb-22 20:00N 57°41' E 011°51'0 0.7
2018-Feb-22 19:26N 57°41' E 011°51'0 0.0
2018-Feb-22 18:59N 57°41' E 011°51'0 0.0
2018-Feb-22 18:29N 57°41' E 011°51'0 0.0
2018-Feb-22 17:59N 57°41' E 011°51'0 0.0
2018-Feb-22 17:29N 57°41' E 011°51'0 0.0
2018-Feb-22 16:59N 57°41' E 011°51'0 0.0
2018-Feb-22 16:29N 57°41' E 011°51'0 0.0
2018-Feb-22 15:59N 57°41' E 011°51'0 0.0
2018-Feb-22 15:29N 57°41' E 011°51'0 0.0
2018-Feb-22 14:59N 57°41' E 011°51'0 0.0
2018-Feb-22 14:26N 57°41' E 011°51'0 0.0
2018-Feb-22 13:59N 57°41' E 011°51'0 0.0
2018-Feb-22 13:29N 57°41' E 011°51'0 0.0
2018-Feb-22 12:59N 57°41' E 011°51'0 0.0
2018-Feb-22 12:26N 57°41' E 011°51'0 0.0
2018-Feb-22 11:59N 57°41' E 011°51'0 0.0
2018-Feb-22 11:29N 57°41' E 011°51'0 0.0
2018-Feb-22 10:59N 57°41' E 011°51'0 0.0
2018-Feb-22 10:29N 57°41' E 011°51'0 0.0
2018-Feb-22 09:59N 57°41' E 011°51'0 0.0
2018-Feb-22 09:29N 57°41' E 011°51'0 0.0
2018-Feb-22 08:59N 57°41' E 011°51'0 0.0
2018-Feb-22 08:29N 57°41' E 011°51'0 0.0
2018-Feb-22 07:59N 57°41' E 011°51'0 0.0
2018-Feb-22 07:29N 57°41' E 011°51'0 0.0
2018-Feb-22 06:59N 57°41' E 011°51'0 0.0
2018-Feb-22 06:29N 57°41' E 011°51'0 0.8
2018-Feb-22 06:00N 57°41' E 011°51'510.3
2018-Feb-22 05:30N 57°39' E 011°42'611.3
2018-Feb-22 05:00N 57°37' E 011°32'611.9
2018-Feb-22 04:30N 57°39' E 011°22'611.8
2018-Feb-22 04:00N 57°42' E 011°12'611.7
2018-Feb-22 03:30N 57°44' E 011°02'612.5
2018-Feb-22 03:00N 57°45' E 010°50'612.8
2018-Feb-22 02:30N 57°46' E 010°38'814.6
2018-Feb-22 01:58N 57°45' E 010°24'17714.1
2018-Feb-21 13:28N 55°37' E 006°43'715.6
2018-Feb-21 13:01N 55°31' E 006°36'815.5
2018-Feb-21 12:30N 55°24' E 006°29'14615.1
2018-Feb-21 02:51N 53°14' E 004°33'514.3
2018-Feb-21 02:30N 53°10' E 004°29'714.3
2018-Feb-21 02:01N 53°04' E 004°24'714.3
2018-Feb-21 01:31N 52°57' E 004°18'714.1
2018-Feb-21 01:01N 52°51' E 004°13'713.8
2018-Feb-21 00:30N 52°45' E 004°08'713.6
2018-Feb-21 00:00N 52°39' E 004°03'713.6
2018-Feb-20 23:30N 52°33' E 003°58'713.3
2018-Feb-20 23:00N 52°26' E 003°54'713.4
2018-Feb-20 22:30N 52°20' E 003°52'713.8
2018-Feb-20 22:00N 52°13' E 003°53'714.1
2018-Feb-20 21:30N 52°06' E 003°54'510.2
2018-Feb-20 21:00N 52°01' E 003°57'611.2
2018-Feb-20 20:30N 51°58' E 004°04'3 5.5
2018-Feb-20 20:00N 51°57' E 003°60'0 0.3
2018-Feb-20 19:29N 51°57' E 003°60'0 0.0
2018-Feb-20 18:59N 51°57' E 003°60'0 0.0
2018-Feb-20 18:29N 51°57' E 003°60'0 0.0
2018-Feb-20 17:59N 51°57' E 003°60'0 0.0
2018-Feb-20 17:29N 51°57' E 003°60'0 0.0
2018-Feb-20 16:53N 51°57' E 003°60'0 0.1
2018-Feb-20 16:29N 51°57' E 003°60'0 0.4
2018-Feb-20 15:57N 51°58' E 003°60'2 4.6
2018-Feb-20 15:30N 51°58' E 004°03'0 0.7
2018-Feb-20 15:00N 51°58' E 004°03'0 0.0
2018-Feb-20 14:30N 51°58' E 004°03'0 0.0
2018-Feb-20 13:57N 51°58' E 004°03'0 0.0
2018-Feb-20 13:30N 51°58' E 004°03'0 0.0
2018-Feb-20 13:00N 51°58' E 004°03'0 0.0
2018-Feb-20 12:30N 51°58' E 004°03'0 0.0
2018-Feb-20 12:00N 51°58' E 004°03'0 0.0
2018-Feb-20 11:30N 51°58' E 004°03'0 0.0
2018-Feb-20 11:00N 51°58' E 004°03'0 0.0
2018-Feb-20 10:30N 51°58' E 004°03'0 0.0
2018-Feb-20 10:00N 51°58' E 004°03'0 0.0
2018-Feb-20 09:30N 51°58' E 004°03'0 0.0
2018-Feb-20 09:00N 51°58' E 004°03'0 0.0
2018-Feb-20 08:30N 51°58' E 004°03'0 0.0
2018-Feb-20 08:00N 51°58' E 004°03'0 0.0
2018-Feb-20 07:30N 51°58' E 004°03'0 0.0
2018-Feb-20 07:00N 51°58' E 004°03'0 0.0
2018-Feb-20 06:30N 51°58' E 004°03'0 0.0
2018-Feb-20 06:00N 51°58' E 004°03'0 0.0
2018-Feb-20 05:30N 51°58' E 004°03'0 0.0
2018-Feb-20 04:57N 51°58' E 004°03'0 0.0
2018-Feb-20 04:30N 51°58' E 004°03'0 0.0
2018-Feb-20 04:00N 51°58' E 004°03'0 0.0
2018-Feb-20 03:30N 51°58' E 004°03'1 2.1
2018-Feb-20 03:00N 51°57' E 004°05'1 1.2
2018-Feb-20 02:29N 51°57' E 004°04'0 0.0
2018-Feb-20 01:59N 51°57' E 004°04'0 0.0
2018-Feb-20 01:29N 51°57' E 004°04'0 0.0
2018-Feb-20 00:59N 51°57' E 004°04'0 0.0
2018-Feb-20 00:29N 51°57' E 004°04'0 0.0
2018-Feb-19 23:59N 51°57' E 004°04'0 0.0
2018-Feb-19 23:29N 51°57' E 004°04'0 0.0
2018-Feb-19 22:59N 51°57' E 004°04'0 0.0
2018-Feb-19 22:29N 51°57' E 004°04'0 0.0
2018-Feb-19 21:59N 51°57' E 004°04'0 0.0
2018-Feb-19 21:29N 51°57' E 004°04'0 0.0
2018-Feb-19 20:59N 51°57' E 004°04'0 0.0
2018-Feb-19 20:29N 51°57' E 004°04'0 0.0
2018-Feb-19 19:59N 51°57' E 004°04'0 0.0
2018-Feb-19 19:29N 51°57' E 004°04'0 0.0
2018-Feb-19 18:59N 51°57' E 004°04'0 0.3
2018-Feb-19 18:30N 51°57' E 004°04'3 5.7
2018-Feb-19 18:00N 51°59' E 004°02'714.9
2018-Feb-19 17:31N 52°00' E 003°50'3214.7
2018-Feb-19 15:18N 51°50' E 002°60'1714.7
2018-Feb-19 14:08N 51°43' E 002°34'214.8
2018-Feb-19 14:00N 51°42' E 002°32'714.7
2018-Feb-19 13:30N 51°37' E 002°23'714.9
2018-Feb-19 13:00N 51°31' E 002°15'714.9
2018-Feb-19 12:30N 51°26' E 002°07'815.1
2018-Feb-19 12:00N 51°20' E 001°59'714.6
2018-Feb-19 11:30N 51°15' E 001°51'714.0
2018-Feb-19 11:00N 51°09' E 001°44'713.4
2018-Feb-19 10:28N 51°03' E 001°39'713.0
2018-Feb-19 09:57N 50°58' E 001°32'6411.3
2018-Feb-19 04:20N 50°21' E 000°10'411.1
2018-Feb-19 04:00N 50°20' E 000°05'511.1
2018-Feb-19 03:30N 50°19' W 000°04'611.1
2018-Feb-19 03:00N 50°17' W 000°12'511.1
2018-Feb-19 02:30N 50°15' W 000°20'1811.9
2018-Feb-19 00:58N 50°11' W 000°48'613.4
2018-Feb-19 00:31N 50°09' W 000°57'714.3
2018-Feb-19 00:01N 50°07' W 001°08'815.1
2018-Feb-18 23:30N 50°05' W 001°19'917.2
2018-Feb-18 23:01N 50°02' W 001°32'917.8
2018-Feb-18 22:30N 49°60' W 001°45'919.0
2018-Feb-18 22:01N 49°57' W 001°59'918.8
2018-Feb-18 21:30N 49°54' W 002°13'10616.5
2018-Feb-18 15:06N 49°06' W 004°39'115.0
2018-Feb-18 15:00N 49°06' W 004°41'715.1
2018-Feb-18 14:30N 49°02' W 004°51'814.8
2018-Feb-18 14:00N 48°58' W 005°01'714.3
2018-Feb-18 13:30N 48°55' W 005°10'714.0
2018-Feb-18 13:00N 48°51' W 005°19'713.6
2018-Feb-18 12:30N 48°48' W 005°28'713.2
2018-Feb-18 11:58N 48°43' W 005°37'713.3
2018-Feb-18 11:27N 48°38' W 005°42'813.0
2018-Feb-18 10:50N 48°31' W 005°49'413.0
2018-Feb-18 10:30N 48°27' W 005°51'2713.4
2018-Feb-18 08:28N 48°03' W 006°10'53314.2
2018-Feb-16 18:53N 39°34' W 009°50'514.6
2018-Feb-16 18:30N 39°28' W 009°50'714.7
2018-Feb-16 18:00N 39°21' W 009°50'714.7
2018-Feb-16 17:30N 39°13' W 009°50'714.6
2018-Feb-16 17:00N 39°06' W 009°50'714.6
2018-Feb-16 16:30N 38°59' W 009°50'714.8
2018-Feb-16 16:00N 38°51' W 009°50'714.5
2018-Feb-16 15:30N 38°44' W 009°50'612.7
2018-Feb-16 15:00N 38°38' W 009°47'714.1
2018-Feb-16 14:31N 38°38' W 009°38'714.0
2018-Feb-16 14:01N 38°37' W 009°29'612.0
2018-Feb-16 13:30N 38°38' W 009°22'611.2
2018-Feb-16 13:00N 38°41' W 009°16'611.9
2018-Feb-16 12:30N 38°42' W 009°08'2 0.3
2018-Feb-16 06:13N 38°43' W 009°07'0 0.0
2018-Feb-16 06:01N 38°43' W 009°07'0 0.0
2018-Feb-16 02:25N 38°43' W 009°07'0 0.0
2018-Feb-16 02:01N 38°43' W 009°07'0 0.0
2018-Feb-16 01:28N 38°43' W 009°07'0 0.0
2018-Feb-16 01:01N 38°43' W 009°07'0 0.0
2018-Feb-16 00:31N 38°43' W 009°07'0 0.0
2018-Feb-15 23:52N 38°43' W 009°07'0 0.0
2018-Feb-15 23:19N 38°43' W 009°07'0 0.0
2018-Feb-15 22:22N 38°43' W 009°07'  
Track history (hours):
 
Tides and Currents Weather Stations Pressure Air Temp Water Temp Dewpoint Dewpoint Depression Visibility Wind Speed Wind Dir Waves Ship Positions

Ice Crystal

Last reported at 2018-Feb-25 21:58 UTC. Time now 2018-Feb-25 22:09 UTC.
Position N 51°57' E 003°59'.

Length 129 m; draft 7.7 m.

Type: Cargo ship. MMSI: 305412000.

Date/timePositionNaut miles runAvg speedWind from/ knotsBaromVisibWave heightAir tempDewpointWater temp
2018-Feb-25 21:58N 51°57' E 003°59'0 0.0
2018-Feb-25 21:28N 51°57' E 003°59'0 0.0
2018-Feb-25 20:58N 51°57' E 003°59'0 0.0
2018-Feb-25 20:30N 51°57' E 003°59'0 0.2
2018-Feb-25 20:00N 51°57' E 003°59'2 3.0
2018-Feb-25 19:30N 51°58' E 003°60'3 6.6
2018-Feb-25 19:00N 51°58' E 004°05'4 8.8
2018-Feb-25 18:30N 51°60' E 003°59'5 9.4
2018-Feb-25 18:00N 52°01' E 003°51'811.3
2018-Feb-25 17:19N 52°08' E 003°45'1 2.2
2018-Feb-25 16:55N 52°08' E 003°44'0 0.0
2018-Feb-25 16:22N 52°08' E 003°44'0 0.0
2018-Feb-25 15:55N 52°08' E 003°44'0 0.0
2018-Feb-25 15:28N 52°08' E 003°44'0 0.0
2018-Feb-25 14:55N 52°08' E 003°44'0 0.0
2018-Feb-25 14:28N 52°08' E 003°44'0 1.0
2018-Feb-25 14:00N 52°09' E 003°44'611.7
2018-Feb-25 13:30N 52°14' E 003°46'20611.5
2018-Feb-24 19:34N 55°20' E 006°19'111.7
2018-Feb-24 19:30N 55°21' E 006°20'611.7
2018-Feb-24 18:59N 55°26' E 006°26'511.4
2018-Feb-24 18:30N 55°30' E 006°31'611.4
2018-Feb-24 18:00N 55°35' E 006°36'12711.4
2018-Feb-24 06:49N 57°19' E 008°48'1611.5
2018-Feb-24 05:26N 57°28' E 009°13'2711.4
2018-Feb-24 03:02N 57°43' E 009°56'311.0
2018-Feb-24 02:46N 57°44' E 010°01'511.2
2018-Feb-24 02:21N 57°45' E 010°09'411.3
2018-Feb-24 02:00N 57°46' E 010°16'611.4
2018-Feb-24 01:30N 57°47' E 010°26'611.5
2018-Feb-24 01:00N 57°48' E 010°37'510.7
2018-Feb-24 00:30N 57°46' E 010°47'612.0
2018-Feb-24 00:00N 57°40' E 010°46'611.3
2018-Feb-23 23:30N 57°35' E 010°46'611.5
2018-Feb-23 23:00N 57°29' E 010°45'611.8
2018-Feb-23 22:30N 57°23' E 010°44'612.3
2018-Feb-23 22:00N 57°17' E 010°43'7410.8
2018-Feb-23 15:09N 56°03' E 010°46'612.1
2018-Feb-23 14:40N 56°04' E 010°35'212.6
2018-Feb-23 14:30N 56°05' E 010°32'713.1
2018-Feb-23 14:00N 56°08' E 010°22'4 8.5
2018-Feb-23 13:30N 56°09' E 010°14'0 0.0
2018-Feb-23 12:57N 56°09' E 010°14'0 0.0
2018-Feb-23 12:30N 56°09' E 010°14'0 0.0
2018-Feb-23 12:00N 56°09' E 010°14'0 0.0
2018-Feb-23 11:30N 56°09' E 010°14'0 0.0
2018-Feb-23 11:00N 56°09' E 010°14'0 0.0
2018-Feb-23 10:30N 56°09' E 010°14'0 0.0
2018-Feb-23 10:00N 56°09' E 010°14'0 0.0
2018-Feb-23 09:30N 56°09' E 010°14'0 0.0
2018-Feb-23 06:40N 56°09' E 010°14'0 0.7
2018-Feb-23 06:23N 56°09' E 010°14'2 4.4
2018-Feb-23 06:00N 56°09' E 010°17'610.1
2018-Feb-23 05:25N 56°06' E 010°27'2610.5
2018-Feb-23 02:54N 56°09' E 011°14'1214.4
2018-Feb-23 02:05N 56°20' E 011°25'1315.2
2018-Feb-23 01:16N 56°30' E 011°36'1115.2
2018-Feb-23 00:34N 56°40' E 011°45'215.4
2018-Feb-23 00:26N 56°41' E 011°47'1114.6
2018-Feb-22 23:42N 56°52' E 011°47'315.9
2018-Feb-22 23:30N 56°55' E 011°45'815.6
2018-Feb-22 23:00N 57°02' E 011°40'714.9
2018-Feb-22 22:31N 57°10' E 011°38'714.8
2018-Feb-22 22:00N 57°17' E 011°38'714.9
2018-Feb-22 21:30N 57°24' E 011°37'815.2
2018-Feb-22 21:00N 57°32' E 011°37'713.6
2018-Feb-22 20:30N 57°38' E 011°42'611.0
2018-Feb-22 20:00N 57°41' E 011°51'0 0.7
2018-Feb-22 19:26N 57°41' E 011°51'0 0.0
2018-Feb-22 18:59N 57°41' E 011°51'0 0.0
2018-Feb-22 18:29N 57°41' E 011°51'0 0.0
2018-Feb-22 17:59N 57°41' E 011°51'0 0.0
2018-Feb-22 17:29N 57°41' E 011°51'0 0.0
2018-Feb-22 16:59N 57°41' E 011°51'0 0.0
2018-Feb-22 16:29N 57°41' E 011°51'0 0.0
2018-Feb-22 15:59N 57°41' E 011°51'0 0.0
2018-Feb-22 15:29N 57°41' E 011°51'0 0.0
2018-Feb-22 14:59N 57°41' E 011°51'0 0.0
2018-Feb-22 14:26N 57°41' E 011°51'0 0.0
2018-Feb-22 13:59N 57°41' E 011°51'0 0.0
2018-Feb-22 13:29N 57°41' E 011°51'0 0.0
2018-Feb-22 12:59N 57°41' E 011°51'0 0.0
2018-Feb-22 12:26N 57°41' E 011°51'0 0.0
2018-Feb-22 11:59N 57°41' E 011°51'0 0.0
2018-Feb-22 11:29N 57°41' E 011°51'0 0.0
2018-Feb-22 10:59N 57°41' E 011°51'0 0.0
2018-Feb-22 10:29N 57°41' E 011°51'0 0.0
2018-Feb-22 09:59N 57°41' E 011°51'0 0.0
2018-Feb-22 09:29N 57°41' E 011°51'0 0.0
2018-Feb-22 08:59N 57°41' E 011°51'0 0.0
2018-Feb-22 08:29N 57°41' E 011°51'0 0.0
2018-Feb-22 07:59N 57°41' E 011°51'0 0.0
2018-Feb-22 07:29N 57°41' E 011°51'0 0.0
2018-Feb-22 06:59N 57°41' E 011°51'0 0.0
2018-Feb-22 06:29N 57°41' E 011°51'0 0.8
2018-Feb-22 06:00N 57°41' E 011°51'510.3
2018-Feb-22 05:30N 57°39' E 011°42'611.3
2018-Feb-22 05:00N 57°37' E 011°32'611.9
2018-Feb-22 04:30N 57°39' E 011°22'611.8
2018-Feb-22 04:00N 57°42' E 011°12'611.7
2018-Feb-22 03:30N 57°44' E 011°02'612.5
2018-Feb-22 03:00N 57°45' E 010°50'612.8
2018-Feb-22 02:30N 57°46' E 010°38'814.6
2018-Feb-22 01:58N 57°45' E 010°24'17714.1
2018-Feb-21 13:28N 55°37' E 006°43'715.6
2018-Feb-21 13:01N 55°31' E 006°36'815.5
2018-Feb-21 12:30N 55°24' E 006°29'14615.1
2018-Feb-21 02:51N 53°14' E 004°33'514.3
2018-Feb-21 02:30N 53°10' E 004°29'714.3
2018-Feb-21 02:01N 53°04' E 004°24'714.3
2018-Feb-21 01:31N 52°57' E 004°18'714.1
2018-Feb-21 01:01N 52°51' E 004°13'713.8
2018-Feb-21 00:30N 52°45' E 004°08'713.6
2018-Feb-21 00:00N 52°39' E 004°03'713.6
2018-Feb-20 23:30N 52°33' E 003°58'713.3
2018-Feb-20 23:00N 52°26' E 003°54'713.4
2018-Feb-20 22:30N 52°20' E 003°52'713.8
2018-Feb-20 22:00N 52°13' E 003°53'714.1
2018-Feb-20 21:30N 52°06' E 003°54'510.2
2018-Feb-20 21:00N 52°01' E 003°57'611.2
2018-Feb-20 20:30N 51°58' E 004°04'3 5.5
2018-Feb-20 20:00N 51°57' E 003°60'0 0.3
2018-Feb-20 19:29N 51°57' E 003°60'0 0.0
2018-Feb-20 18:59N 51°57' E 003°60'0 0.0
2018-Feb-20 18:29N 51°57' E 003°60'0 0.0
2018-Feb-20 17:59N 51°57' E 003°60'0 0.0
2018-Feb-20 17:29N 51°57' E 003°60'0 0.0
2018-Feb-20 16:53N 51°57' E 003°60'0 0.1
2018-Feb-20 16:29N 51°57' E 003°60'0 0.4
2018-Feb-20 15:57N 51°58' E 003°60'2 4.6
2018-Feb-20 15:30N 51°58' E 004°03'0 0.7
2018-Feb-20 15:00N 51°58' E 004°03'0 0.0
2018-Feb-20 14:30N 51°58' E 004°03'0 0.0
2018-Feb-20 13:57N 51°58' E 004°03'0 0.0
2018-Feb-20 13:30N 51°58' E 004°03'0 0.0
2018-Feb-20 13:00N 51°58' E 004°03'0 0.0
2018-Feb-20 12:30N 51°58' E 004°03'0 0.0
2018-Feb-20 12:00N 51°58' E 004°03'0 0.0
2018-Feb-20 11:30N 51°58' E 004°03'0 0.0
2018-Feb-20 11:00N 51°58' E 004°03'0 0.0
2018-Feb-20 10:30N 51°58' E 004°03'0 0.0
2018-Feb-20 10:00N 51°58' E 004°03'0 0.0
2018-Feb-20 09:30N 51°58' E 004°03'0 0.0
2018-Feb-20 09:00N 51°58' E 004°03'0 0.0
2018-Feb-20 08:30N 51°58' E 004°03'0 0.0
2018-Feb-20 08:00N 51°58' E 004°03'0 0.0
2018-Feb-20 07:30N 51°58' E 004°03'0 0.0
2018-Feb-20 07:00N 51°58' E 004°03'0 0.0
2018-Feb-20 06:30N 51°58' E 004°03'0 0.0
2018-Feb-20 06:00N 51°58' E 004°03'0 0.0
2018-Feb-20 05:30N 51°58' E 004°03'0 0.0
2018-Feb-20 04:57N 51°58' E 004°03'0 0.0
2018-Feb-20 04:30N 51°58' E 004°03'0 0.0
2018-Feb-20 04:00N 51°58' E 004°03'0 0.0
2018-Feb-20 03:30N 51°58' E 004°03'1 2.1
2018-Feb-20 03:00N 51°57' E 004°05'1 1.2
2018-Feb-20 02:29N 51°57' E 004°04'0 0.0
2018-Feb-20 01:59N 51°57' E 004°04'0 0.0
2018-Feb-20 01:29N 51°57' E 004°04'0 0.0
2018-Feb-20 00:59N 51°57' E 004°04'0 0.0
2018-Feb-20 00:29N 51°57' E 004°04'0 0.0
2018-Feb-19 23:59N 51°57' E 004°04'0 0.0
2018-Feb-19 23:29N 51°57' E 004°04'0 0.0
2018-Feb-19 22:59N 51°57' E 004°04'0 0.0
2018-Feb-19 22:29N 51°57' E 004°04'0 0.0
2018-Feb-19 21:59N 51°57' E 004°04'0 0.0
2018-Feb-19 21:29N 51°57' E 004°04'0 0.0
2018-Feb-19 20:59N 51°57' E 004°04'0 0.0
2018-Feb-19 20:29N 51°57' E 004°04'0 0.0
2018-Feb-19 19:59N 51°57' E 004°04'0 0.0
2018-Feb-19 19:29N 51°57' E 004°04'0 0.0
2018-Feb-19 18:59N 51°57' E 004°04'0 0.3
2018-Feb-19 18:30N 51°57' E 004°04'3 5.7
2018-Feb-19 18:00N 51°59' E 004°02'714.9
2018-Feb-19 17:31N 52°00' E 003°50'3214.7
2018-Feb-19 15:18N 51°50' E 002°60'1714.7
2018-Feb-19 14:08N 51°43' E 002°34'214.8
2018-Feb-19 14:00N 51°42' E 002°32'714.7
2018-Feb-19 13:30N 51°37' E 002°23'714.9
2018-Feb-19 13:00N 51°31' E 002°15'714.9
2018-Feb-19 12:30N 51°26' E 002°07'815.1
2018-Feb-19 12:00N 51°20' E 001°59'714.6
2018-Feb-19 11:30N 51°15' E 001°51'714.0
2018-Feb-19 11:00N 51°09' E 001°44'713.4
2018-Feb-19 10:28N 51°03' E 001°39'713.0
2018-Feb-19 09:57N 50°58' E 001°32'6411.3
2018-Feb-19 04:20N 50°21' E 000°10'411.1
2018-Feb-19 04:00N 50°20' E 000°05'511.1
2018-Feb-19 03:30N 50°19' W 000°04'611.1
2018-Feb-19 03:00N 50°17' W 000°12'511.1
2018-Feb-19 02:30N 50°15' W 000°20'1811.9
2018-Feb-19 00:58N 50°11' W 000°48'613.4
2018-Feb-19 00:31N 50°09' W 000°57'714.3
2018-Feb-19 00:01N 50°07' W 001°08'815.1
2018-Feb-18 23:30N 50°05' W 001°19'917.2
2018-Feb-18 23:01N 50°02' W 001°32'917.8
2018-Feb-18 22:30N 49°60' W 001°45'919.0
2018-Feb-18 22:01N 49°57' W 001°59'918.8
2018-Feb-18 21:30N 49°54' W 002°13'10616.5
2018-Feb-18 15:06N 49°06' W 004°39'115.0
2018-Feb-18 15:00N 49°06' W 004°41'715.1
2018-Feb-18 14:30N 49°02' W 004°51'814.8
2018-Feb-18 14:00N 48°58' W 005°01'714.3
2018-Feb-18 13:30N 48°55' W 005°10'714.0
2018-Feb-18 13:00N 48°51' W 005°19'713.6
2018-Feb-18 12:30N 48°48' W 005°28'713.2
2018-Feb-18 11:58N 48°43' W 005°37'713.3
2018-Feb-18 11:27N 48°38' W 005°42'813.0
2018-Feb-18 10:50N 48°31' W 005°49'413.0
2018-Feb-18 10:30N 48°27' W 005°51'2713.4
2018-Feb-18 08:28N 48°03' W 006°10'53314.2
2018-Feb-16 18:53N 39°34' W 009°50'514.6
2018-Feb-16 18:30N 39°28' W 009°50'714.7
2018-Feb-16 18:00N 39°21' W 009°50'714.7
2018-Feb-16 17:30N 39°13' W 009°50'714.6
2018-Feb-16 17:00N 39°06' W 009°50'714.6
2018-Feb-16 16:30N 38°59' W 009°50'714.8
2018-Feb-16 16:00N 38°51' W 009°50'714.5
2018-Feb-16 15:30N 38°44' W 009°50'612.7
2018-Feb-16 15:00N 38°38' W 009°47'714.1
2018-Feb-16 14:31N 38°38' W 009°38'714.0
2018-Feb-16 14:01N 38°37' W 009°29'612.0
2018-Feb-16 13:30N 38°38' W 009°22'611.2
2018-Feb-16 13:00N 38°41' W 009°16'611.9
2018-Feb-16 12:30N 38°42' W 009°08'2 0.3
2018-Feb-16 06:13N 38°43' W 009°07'0 0.0
2018-Feb-16 06:01N 38°43' W 009°07'0 0.0
2018-Feb-16 02:25N 38°43' W 009°07'0 0.0
2018-Feb-16 02:01N 38°43' W 009°07'0 0.0
2018-Feb-16 01:28N 38°43' W 009°07'0 0.0
2018-Feb-16 01:01N 38°43' W 009°07'0 0.0
2018-Feb-16 00:31N 38°43' W 009°07'0 0.0
2018-Feb-15 23:52N 38°43' W 009°07'0 0.0
2018-Feb-15 23:19N 38°43' W 009°07'0 0.0
2018-Feb-15 22:22N 38°43' W 009°07'  

Dump ship's entire track history